Time;durP1;ratioP1;P1;durP2;ratioP2;P2;SDS_P1;SDS_P2;PMS_P1;PMS_P2;Temp;Humidity;BMP_temperature;BMP_pressure;BME280_temperature;BME280_humidity;BME280_pressure;Samples;Min_cycle;Max_cycle;Signal;HPM_P1;HPM_P2
2022/10/25 00:02:02;;;;;;;3.60;2.10;;;;;14.80;99052.00;;;;16614265;28;20221;-47
2022/10/25 00:10:07;;;;;;;3.50;2.40;;;;;15.00;99052.00;;;;16630663;28;20236;-47
2022/10/25 00:18:10;;;;;;;7.03;3.10;;;;;15.20;99049.00;;;;16604989;28;20221;-47
2022/10/25 00:26:13;;;;;;;3.43;2.93;;;;;15.10;99041.00;;;;16612726;28;20310;-47
2022/10/25 00:34:16;;;;;;;2.70;2.50;;;;;14.90;99043.00;;;;16603729;28;20240;-48
2022/10/25 00:42:23;;;;;;;7.30;3.30;;;;;15.30;99033.00;;;;16624343;28;20219;-47
2022/10/25 00:50:40;;;;;;;3.40;2.63;;;;;15.20;99038.00;;;;16617877;28;20209;-47
2022/10/25 00:58:46;;;;;;;7.63;2.53;;;;;15.10;99048.00;;;;16640390;28;20214;-47
2022/10/25 01:06:51;;;;;;;3.30;3.00;;;;;14.80;99043.00;;;;16620434;28;20760;-46
2022/10/25 01:14:55;;;;;;;4.97;3.07;;;;;15.10;99033.00;;;;16624250;23;20210;-47
2022/10/25 01:23:04;;;;;;;3.57;2.73;;;;;15.20;99035.00;;;;16687500;28;20225;-47
2022/10/25 01:31:16;;;;;;;3.10;2.90;;;;;15.30;99035.00;;;;16614387;28;20601;-47
2022/10/25 01:39:22;;;;;;;5.20;3.07;;;;;15.40;99029.00;;;;16609004;28;20620;-47
2022/10/25 01:47:31;;;;;;;5.63;4.20;;;;;14.50;99032.00;;;;16604338;28;20301;-47
2022/10/25 01:55:37;;;;;;;5.10;3.60;;;;;14.60;99040.00;;;;16615634;28;20305;-46
2022/10/25 02:03:45;;;;;;;5.80;4.73;;;;;14.70;99050.00;;;;16602967;28;20222;-46
2022/10/25 02:11:50;;;;;;;5.80;4.63;;;;;14.50;99060.00;;;;16629520;28;20383;-46
2022/10/25 02:19:56;;;;;;;5.50;4.67;;;;;14.40;99058.00;;;;16605064;28;20233;-46
2022/10/25 02:27:59;;;;;;;4.90;4.20;;;;;14.00;99064.00;;;;16621270;28;20222;-46
2022/10/25 02:36:13;;;;;;;5.00;3.77;;;;;13.80;99058.00;;;;16627976;28;20216;-46
2022/10/25 02:44:16;;;;;;;4.20;3.80;;;;;14.10;99044.00;;;;16629957;28;20286;-46
2022/10/25 02:52:19;;;;;;;4.23;3.80;;;;;14.70;99035.00;;;;16616268;28;20222;-47
2022/10/25 03:00:22;;;;;;;10.67;4.83;;;;;14.90;99027.00;;;;16626966;28;20227;-46
2022/10/25 03:08:27;;;;;;;6.40;4.77;;;;;14.50;99030.00;;;;16637424;28;20583;-47
2022/10/25 03:16:29;;;;;;;5.87;4.60;;;;;14.20;99021.00;;;;16608408;28;20229;-46
2022/10/25 03:24:33;;;;;;;6.17;4.97;;;;;14.20;99038.00;;;;16614184;28;20231;-46
2022/10/25 03:32:35;;;;;;;8.30;5.27;;;;;14.40;99042.00;;;;16595358;28;20705;-47
2022/10/25 03:40:39;;;;;;;6.63;5.07;;;;;14.40;99044.00;;;;16621340;28;20884;-47
2022/10/25 03:48:42;;;;;;;5.13;4.63;;;;;14.20;99050.00;;;;16615999;28;20222;-47
2022/10/25 03:56:45;;;;;;;5.57;4.97;;;;;13.90;99050.00;;;;16620034;28;20221;-47
2022/10/25 04:04:48;;;;;;;8.07;4.50;;;;;14.10;99060.00;;;;16618087;28;20231;-46
2022/10/25 04:12:52;;;;;;;4.37;3.97;;;;;13.60;99061.00;;;;16640118;28;20686;-47
2022/10/25 04:20:54;;;;;;;4.23;3.83;;;;;13.70;99065.00;;;;16602993;28;20291;-47
2022/10/25 04:28:58;;;;;;;7.50;5.63;;;;;14.00;99069.00;;;;16627275;28;20219;-46
2022/10/25 04:37:00;;;;;;;7.60;6.50;;;;;14.10;99056.00;;;;16641007;28;20219;-46
2022/10/25 04:45:05;;;;;;;9.90;6.20;;;;;14.10;99065.00;;;;16639109;28;20300;-46
2022/10/25 04:53:07;;;;;;;6.57;5.63;;;;;14.00;99067.00;;;;16631998;28;20196;-46
2022/10/25 05:01:13;;;;;;;10.30;6.93;;;;;14.00;99075.00;;;;16635023;28;20228;-46
2022/10/25 05:09:15;;;;;;;11.80;9.30;;;;;13.90;99070.00;;;;16622353;28;20815;-46
2022/10/25 05:17:19;;;;;;;9.20;6.90;;;;;14.00;99072.00;;;;16622308;28;20737;-46
2022/10/25 05:25:22;;;;;;;8.60;5.80;;;;;13.70;99083.00;;;;16621330;28;20677;-46
2022/10/25 05:33:26;;;;;;;8.47;6.20;;;;;13.50;99093.00;;;;16611632;28;20563;-46
2022/10/25 05:41:29;;;;;;;8.83;8.03;;;;;12.90;99106.00;;;;16611436;28;20231;-46
2022/10/25 05:49:33;;;;;;;9.37;6.57;;;;;12.90;99102.00;;;;16620477;28;20229;-46
2022/10/25 05:57:35;;;;;;;7.50;6.70;;;;;12.90;99109.00;;;;16625780;28;20701;-46
2022/10/25 06:05:39;;;;;;;7.10;5.10;;;;;12.90;99105.00;;;;16623616;28;20317;-46
2022/10/25 06:13:42;;;;;;;6.40;4.87;;;;;13.20;99109.00;;;;16629539;28;20189;-45
2022/10/25 06:21:46;;;;;;;5.50;4.53;;;;;13.50;99106.00;;;;16630775;28;20309;-44
2022/10/25 06:29:49;;;;;;;9.23;5.03;;;;;13.60;99121.00;;;;16633470;28;20235;-46
2022/10/25 06:37:52;;;;;;;5.60;4.27;;;;;13.80;99142.00;;;;16631275;28;20312;-46
2022/10/25 06:45:55;;;;;;;3.80;3.50;;;;;13.20;99155.00;;;;16626055;28;20235;-46
2022/10/25 06:54:00;;;;;;;4.43;4.00;;;;;12.60;99173.00;;;;16636710;28;20293;-46
2022/10/25 07:02:02;;;;;;;9.33;6.70;;;;;13.60;99185.00;;;;16633143;28;20227;-46
2022/10/25 07:10:07;;;;;;;7.53;6.30;;;;;14.00;99189.00;;;;16641433;28;20226;-46
2022/10/25 07:18:09;;;;;;;8.70;6.60;;;;;13.90;99187.00;;;;16629340;28;20231;-46
2022/10/25 07:26:16;;;;;;;10.30;7.87;;;;;13.80;99181.00;;;;16636944;28;20273;-46
2022/10/25 07:34:19;;;;;;;7.77;5.33;;;;;14.00;99186.00;;;;16615578;22;20261;-77
2022/10/25 07:42:22;;;;;;;9.50;5.90;;;;;14.50;99201.00;;;;16563012;28;20274;-77
2022/10/25 07:50:25;;;;;;;6.60;4.80;;;;;14.70;99189.00;;;;16554022;28;20364;-75
2022/10/25 07:58:29;;;;;;;5.27;4.77;;;;;14.90;99188.00;;;;16528437;28;20265;-75
2022/10/25 08:06:35;;;;;;;9.73;4.83;;;;;15.00;99185.00;;;;16529051;28;20305;-75
2022/10/25 08:14:38;;;;;;;11.40;5.30;;;;;15.20;99184.00;;;;16527246;28;20216;-76
2022/10/25 08:22:41;;;;;;;9.73;5.30;;;;;15.60;99185.00;;;;16535865;28;20227;-75
2022/10/25 08:30:45;;;;;;;9.70;4.03;;;;;16.30;99174.00;;;;16546829;28;20251;-77
2022/10/25 08:38:47;;;;;;;4.70;3.60;;;;;16.50;99168.00;;;;16545435;28;20720;-76
2022/10/25 08:46:56;;;;;;;6.00;3.83;;;;;17.20;99166.00;;;;16560097;28;20227;-77
2022/10/25 08:55:01;;;;;;;3.77;3.40;;;;;17.40;99163.00;;;;16536334;28;21274;-76
2022/10/25 09:03:05;;;;;;;3.43;3.13;;;;;17.70;99169.00;;;;16549189;28;20718;-76
2022/10/25 09:11:16;;;;;;;7.03;3.30;;;;;18.10;99177.00;;;;16566941;28;20215;-76
2022/10/25 09:19:25;;;;;;;10.03;4.07;;;;;18.50;99180.00;;;;16549762;28;20821;-76
2022/10/25 09:27:35;;;;;;;5.53;3.60;;;;;19.00;99168.00;;;;16568736;28;20311;-78
2022/10/25 09:35:42;;;;;;;6.20;3.13;;;;;19.40;99164.00;;;;16561629;28;20233;-77
2022/10/25 09:43:49;;;;;;;4.20;2.87;;;;;19.60;99172.00;;;;16572011;28;20822;-77
2022/10/25 09:51:59;;;;;;;5.90;2.87;;;;;19.60;99173.00;;;;16565332;28;20341;-77
2022/10/25 10:00:02;;;;;;;7.97;3.07;;;;;19.70;99164.00;;;;16576495;28;20223;-78
2022/10/25 10:08:15;;;;;;;6.57;3.00;;;;;20.10;99157.00;;;;16574958;28;20290;-76
2022/10/25 10:16:23;;;;;;;4.33;2.80;;;;;20.70;99159.00;;;;16578335;28;20216;-78
2022/10/25 10:24:30;;;;;;;10.40;2.50;;;;;21.30;99155.00;;;;16585155;28;20229;-79
2022/10/25 10:32:34;;;;;;;5.97;2.60;;;;;21.80;99151.00;;;;16578965;28;20326;-78
2022/10/25 10:40:38;;;;;;;5.73;2.33;;;;;22.40;99144.00;;;;16567967;28;20696;-79
2022/10/25 10:48:42;;;;;;;3.40;2.17;;;;;22.10;99129.00;;;;16566706;28;20219;-78
2022/10/25 10:56:54;;;;;;;5.03;2.10;;;;;22.90;99121.00;;;;16565270;28;20243;-79
2022/10/25 11:04:58;;;;;;;2.00;1.83;;;;;23.80;99113.00;;;;16569568;28;20334;-78
2022/10/25 11:13:13;;;;;;;3.00;1.47;;;;;22.70;99115.00;;;;16556412;28;20223;-78
2022/10/25 11:21:26;;;;;;;3.10;1.40;;;;;23.30;99097.00;;;;16564985;28;20349;-78
2022/10/25 11:29:43;;;;;;;6.40;1.40;;;;;24.70;99082.00;;;;16571648;28;20228;-78
2022/10/25 11:38:09;;;;;;;2.70;0.93;;;;;23.80;99081.00;;;;16575529;28;20250;-78
2022/10/25 11:46:18;;;;;;;3.60;1.60;;;;;24.10;99097.00;;;;16571700;28;20243;-78
2022/10/25 11:54:31;;;;;;;1.90;1.20;;;;;24.80;99094.00;;;;16578206;28;20722;-77
2022/10/25 12:02:56;;;;;;;1.90;1.10;;;;;23.40;99084.00;;;;16589368;28;20601;-79
2022/10/25 12:11:03;;;;;;;3.30;1.20;;;;;24.40;99078.00;;;;16561203;28;21643;-79
2022/10/25 12:19:12;;;;;;;1.90;1.30;;;;;26.40;99075.00;;;;16542142;28;20981;-78
2022/10/25 12:27:17;;;;;;;2.57;0.93;;;;;24.50;99070.00;;;;16565362;28;20266;-77
2022/10/25 12:35:23;;;;;;;1.53;1.30;;;;;27.00;99066.00;;;;16573976;28;20226;-78
2022/10/25 12:43:33;;;;;;;1.90;1.00;;;;;25.70;99057.00;;;;16574814;28;20231;-78
2022/10/25 12:52:04;;;;;;;5.10;1.13;;;;;23.80;99063.00;;;;16562227;28;20223;-78
2022/10/25 13:00:11;;;;;;;3.50;1.73;;;;;24.20;99062.00;;;;16540638;28;20235;-78
2022/10/25 13:08:17;;;;;;;3.00;1.70;;;;;22.50;99066.00;;;;16569399;28;20235;-79
2022/10/25 13:16:24;;;;;;;3.90;1.53;;;;;23.40;99059.00;;;;16567015;28;20606;-78
2022/10/25 13:24:39;;;;;;;4.60;2.23;;;;;24.50;99048.00;;;;16545505;28;20227;-77
2022/10/25 13:32:43;;;;;;;3.53;1.83;;;;;24.10;99060.00;;;;16543299;28;20227;-79
2022/10/25 13:41:06;;;;;;;3.63;1.80;;;;;23.10;99057.00;;;;16548753;28;20210;-79
2022/10/25 13:49:30;;;;;;;5.40;2.00;;;;;21.90;99067.00;;;;16559225;28;20282;-80
2022/10/25 13:57:52;;;;;;;3.50;1.60;;;;;21.80;99060.00;;;;16569136;28;20229;-79
2022/10/25 14:06:22;;;;;;;3.43;1.80;;;;;22.20;99060.00;;;;16569477;28;20866;-80
2022/10/25 14:14:28;;;;;;;4.13;2.30;;;;;22.20;99050.00;;;;16563629;28;20745;-78
2022/10/25 14:22:34;;;;;;;2.60;2.00;;;;;21.70;99050.00;;;;16569076;28;20263;-80
2022/10/25 14:30:41;;;;;;;4.37;1.90;;;;;21.60;99039.00;;;;16564412;28;20231;-79
2022/10/25 14:38:52;;;;;;;2.13;1.50;;;;;21.60;99040.00;;;;16578650;28;20227;-80
2022/10/25 14:46:57;;;;;;;4.67;2.23;;;;;22.50;99039.00;;;;16590079;28;20220;-79
2022/10/25 14:55:03;;;;;;;4.30;1.77;;;;;22.20;99029.00;;;;16559893;28;20211;-80
2022/10/25 15:03:08;;;;;;;6.43;2.23;;;;;21.90;99022.00;;;;16583632;28;20279;-79
2022/10/25 15:11:16;;;;;;;4.03;2.10;;;;;21.90;99028.00;;;;16584646;28;20630;-78
2022/10/25 15:19:20;;;;;;;4.73;1.90;;;;;21.90;99028.00;;;;16562664;28;20251;-78
2022/10/25 15:27:31;;;;;;;5.70;2.10;;;;;21.10;99028.00;;;;16573223;28;20231;-79
2022/10/25 15:35:42;;;;;;;6.07;1.93;;;;;20.10;99033.00;;;;16599995;23;20226;-50
2022/10/25 15:43:45;;;;;;;7.90;2.50;;;;;19.20;99037.00;;;;16630427;28;20223;-48
2022/10/25 15:51:49;;;;;;;7.00;2.67;;;;;18.50;99036.00;;;;16631498;28;20230;-48
2022/10/25 15:59:51;;;;;;;7.20;3.57;;;;;18.10;99039.00;;;;16630490;28;20281;-49
2022/10/25 16:07:56;;;;;;;7.23;3.17;;;;;17.80;99049.00;;;;16629289;28;20294;-49
2022/10/25 16:15:59;;;;;;;5.10;3.47;;;;;17.40;99047.00;;;;16632106;28;20298;-48
2022/10/25 16:24:02;;;;;;;6.37;3.63;;;;;17.10;99052.00;;;;16633134;28;20309;-50
2022/10/25 16:32:05;;;;;;;6.97;3.07;;;;;16.90;99040.00;;;;16635869;28;20241;-49
2022/10/25 16:40:13;;;;;;;8.33;3.83;;;;;16.40;99050.00;;;;16636577;28;20237;-48
2022/10/25 16:48:16;;;;;;;7.73;4.33;;;;;16.20;99057.00;;;;16627061;28;20223;-49
2022/10/25 16:56:19;;;;;;;17.10;11.10;;;;;16.20;99053.00;;;;16635504;28;20218;-48
2022/10/25 17:04:22;;;;;;;14.43;6.20;;;;;15.90;99044.00;;;;16626141;28;20219;-49
2022/10/25 17:12:26;;;;;;;23.80;11.70;;;;;15.60;99054.00;;;;16627343;28;20226;-49
2022/10/25 17:20:28;;;;;;;5.60;3.83;;;;;15.40;99047.00;;;;16620473;28;20191;-50
2022/10/25 17:28:32;;;;;;;5.57;3.80;;;;;15.50;99034.00;;;;16611889;28;20321;-50
2022/10/25 17:36:36;;;;;;;7.80;4.10;;;;;15.50;99024.00;;;;16619210;28;20226;-49
2022/10/25 17:44:40;;;;;;;6.13;3.50;;;;;15.30;99029.00;;;;16630466;28;20223;-50
2022/10/25 17:52:43;;;;;;;4.97;4.10;;;;;15.70;99038.00;;;;16620950;28;20225;-50
2022/10/25 18:00:46;;;;;;;4.73;4.20;;;;;15.40;99039.00;;;;16628750;28;20333;-50
2022/10/25 18:08:52;;;;;;;7.00;3.80;;;;;14.70;99041.00;;;;16637227;28;20671;-49
2022/10/25 18:16:56;;;;;;;7.23;4.20;;;;;15.00;99051.00;;;;16645973;28;20210;-50
2022/10/25 18:24:58;;;;;;;8.50;3.63;;;;;15.50;99033.00;;;;16637832;28;20309;-50
2022/10/25 18:33:02;;;;;;;9.37;4.10;;;;;14.90;99044.00;;;;16636015;28;20356;-51
2022/10/25 18:41:07;;;;;;;12.20;4.13;;;;;14.70;99047.00;;;;16636014;28;20210;-49
2022/10/25 18:49:12;;;;;;;11.97;4.97;;;;;15.20;99042.00;;;;16642743;28;20238;-49
2022/10/25 18:57:16;;;;;;;10.77;5.17;;;;;14.80;99030.00;;;;16647204;28;20219;-50
2022/10/25 19:05:20;;;;;;;9.10;3.83;;;;;14.40;99027.00;;;;16637312;28;20471;-49
2022/10/25 19:13:23;;;;;;;9.60;5.60;;;;;14.50;99013.00;;;;16614222;28;20227;-49
2022/10/25 19:21:26;;;;;;;7.30;4.30;;;;;14.40;99015.00;;;;16615485;28;20278;-51
2022/10/25 19:29:29;;;;;;;6.23;3.47;;;;;14.40;99009.00;;;;16622284;28;20226;-50
2022/10/25 19:37:33;;;;;;;4.70;4.30;;;;;14.30;99020.00;;;;16615308;28;20303;-50
2022/10/25 19:45:35;;;;;;;5.70;3.70;;;;;14.30;99024.00;;;;16605052;28;20294;-49
2022/10/25 19:53:39;;;;;;;4.97;3.47;;;;;14.30;99022.00;;;;16615538;28;20246;-50
2022/10/25 20:01:44;;;;;;;6.67;3.97;;;;;14.30;99004.00;;;;16611080;28;20218;-50
2022/10/25 20:09:48;;;;;;;6.10;5.33;;;;;14.70;98993.00;;;;16612757;28;20816;-51
2022/10/25 20:17:50;;;;;;;7.83;3.70;;;;;14.30;98995.00;;;;16621115;28;20211;-50
2022/10/25 20:25:54;;;;;;;11.10;4.17;;;;;13.90;98995.00;;;;16638931;28;20214;-50
2022/10/25 20:33:57;;;;;;;6.23;4.60;;;;;13.80;98989.00;;;;16639375;28;20716;-51
2022/10/25 20:42:00;;;;;;;4.90;4.40;;;;;13.80;98992.00;;;;16628636;28;20233;-49
2022/10/25 20:50:03;;;;;;;9.30;4.20;;;;;14.00;98988.00;;;;16622981;28;20426;-50
2022/10/25 20:58:07;;;;;;;6.40;4.47;;;;;14.00;98976.00;;;;16615353;28;20600;-49
2022/10/25 21:06:11;;;;;;;8.33;4.30;;;;;13.90;98984.00;;;;16608500;28;20227;-50
2022/10/25 21:14:15;;;;;;;5.37;3.77;;;;;14.20;98967.00;;;;16639886;28;20291;-49
2022/10/25 21:22:17;;;;;;;8.10;4.53;;;;;14.00;98964.00;;;;16640242;28;20217;-49
2022/10/25 21:30:21;;;;;;;17.93;10.80;;;;;14.50;98969.00;;;;16639865;28;20225;-48
2022/10/25 21:38:24;;;;;;;6.37;4.20;;;;;14.50;98958.00;;;;16637711;28;20713;-49
2022/10/25 21:46:28;;;;;;;32.47;16.87;;;;;14.50;98959.00;;;;16644570;28;20232;-49
2022/10/25 21:54:31;;;;;;;7.47;6.33;;;;;15.40;98931.00;;;;16667706;28;20225;-50
2022/10/25 22:02:35;;;;;;;7.60;5.00;;;;;15.80;98907.00;;;;16651696;28;20308;-48
2022/10/25 22:10:37;;;;;;;5.47;3.60;;;;;15.30;98902.00;;;;16650573;28;20231;-49
2022/10/25 22:18:41;;;;;;;9.83;4.00;;;;;15.30;98907.00;;;;16666196;28;20703;-49
2022/10/25 22:26:45;;;;;;;7.80;5.50;;;;;14.90;98932.00;;;;16667192;28;20226;-49
2022/10/25 22:34:48;;;;;;;8.50;4.63;;;;;14.90;98931.00;;;;16645978;28;20233;-49
2022/10/25 22:42:51;;;;;;;8.70;3.87;;;;;15.00;98920.00;;;;16638166;28;20233;-50
2022/10/25 22:50:55;;;;;;;10.90;4.50;;;;;16.00;98910.00;;;;16654112;28;20238;-50
2022/10/25 22:58:59;;;;;;;6.60;3.77;;;;;15.40;98907.00;;;;16648277;28;20712;-50
2022/10/25 23:07:02;;;;;;;4.97;3.30;;;;;15.60;98889.00;;;;16637577;28;20219;-50
2022/10/25 23:15:05;;;;;;;9.23;3.97;;;;;16.50;98890.00;;;;16654123;28;20227;-49
2022/10/25 23:23:09;;;;;;;7.57;4.27;;;;;16.20;98895.00;;;;16654441;28;20218;-48
2022/10/25 23:31:12;;;;;;;7.70;4.03;;;;;16.50;98900.00;;;;16651509;28;20227;-49
2022/10/25 23:39:16;;;;;;;6.63;3.87;;;;;16.10;98901.00;;;;16641870;28;20277;-50
2022/10/25 23:47:18;;;;;;;5.10;3.13;;;;;16.50;98882.00;;;;16628699;28;20240;-49
2022/10/25 23:55:22;;;;;;;5.60;3.17;;;;;16.10;98889.00;;;;16651087;28;20585;-49
